Chloride, New Mexico
Current Conditions -  °F | °C
As of 5:53 AM on Friday 19 Dec 2014 (Local Time) from KTCS Reporting Station
Clear Clear  
Wind Chill: 25°   Ceiling: Unl
Heat Index: 31°   Visibility: 10mi
Dew Point: 27°   Wind: 6mph
Humidity: 85%   Direction: 10°N
Pressure: 30.16"   Gusts: NA
Location:  33.3023°N, 107.76°W
Report Text: KTCS 191253Z AUTO 01005KT 10SM CLR M01/M03 A3016 RMK AO2 SLP205 T10061028 TSNO
Loading
Personal Weather Stations






























Interactive Weather Map New forecast layout! Learn more

10-Day Weather Forecast

Advertisements
Track Severe Weather on mobile